Time;durP1;ratioP1;P1;durP2;ratioP2;P2;SDS_P1;SDS_P2;PMS_P1;PMS_P2;Temp;Humidity;BMP_temperature;BMP_pressure;BME280_temperature;BME280_humidity;BME280_pressure;Samples;Min_cycle;Max_cycle;Signal;HPM_P1;HPM_P2
2021/11/02 00:02:05;;;;;;;7.35;2.30;;;;;;;;;;5043233;28;20416;-58
2021/11/02 00:04:33;;;;;;;6.57;2.25;;;;;;;;;;5039712;28;20184;-58
2021/11/02 00:07:00;;;;;;;6.78;2.30;;;;;;;;;;5042337;28;20060;-58
2021/11/02 00:09:34;;;;;;;7.30;2.60;;;;;;;;;;5041993;28;20052;-58
2021/11/02 00:12:01;;;;;;;5.10;2.00;;;;;;;;;;5040470;28;20052;-58
2021/11/02 00:14:29;;;;;;;10.88;2.88;;;;;;;;;;5042505;28;20049;-58
2021/11/02 00:16:58;;;;;;;9.40;2.42;;;;;;;;;;5041160;28;20033;-58
2021/11/02 00:19:27;;;;;;;;;;;;;;;;;;5044234;28;20033;-57
2021/11/02 00:21:54;;;;;;;6.25;2.00;;;;;;;;;;5036798;28;19917;-59
2021/11/02 00:24:39;;;;;;;6.70;2.25;;;;;;;;;;5040778;28;20045;-58
2021/11/02 00:27:05;;;;;;;7.53;2.53;;;;;;;;;;5039538;28;20065;-59
2021/11/02 00:29:33;;;;;;;7.75;2.50;;;;;;;;;;5040388;28;20029;-58
2021/11/02 00:32:00;;;;;;;8.90;2.30;;;;;;;;;;5036534;28;20582;-58
2021/11/02 00:34:26;;;;;;;4.80;1.88;;;;;;;;;;5042114;28;20038;-58
2021/11/02 00:36:53;;;;;;;4.55;1.90;;;;;;;;;;5037706;28;20055;-59
2021/11/02 00:39:19;;;;;;;5.47;2.00;;;;;;;;;;5043566;28;20037;-58
2021/11/02 00:41:45;;;;;;;6.60;2.03;;;;;;;;;;5030513;28;20042;-59
2021/11/02 00:44:14;;;;;;;5.32;1.80;;;;;;;;;;5025009;28;20026;-58
2021/11/02 00:46:42;;;;;;;5.82;2.15;;;;;;;;;;5027545;28;20102;-58
2021/11/02 00:49:16;;;;;;;4.93;1.90;;;;;;;;;;5042136;28;20025;-58
2021/11/02 00:51:43;;;;;;;5.82;1.80;;;;;;;;;;5034677;28;20127;-58
2021/11/02 00:54:10;;;;;;;7.78;2.28;;;;;;;;;;5042763;28;20049;-57
2021/11/02 00:56:36;;;;;;;5.13;1.95;;;;;;;;;;5039340;28;20025;-58
2021/11/02 00:59:03;;;;;;;5.95;2.10;;;;;;;;;;5041263;28;20052;-59
2021/11/02 01:01:29;;;;;;;7.03;1.80;;;;;;;;;;5036881;28;20041;-58
2021/11/02 01:03:58;;;;;;;6.40;2.10;;;;;;;;;;5040373;28;20045;-58
2021/11/02 01:06:25;;;;;;;4.95;1.70;;;;;;;;;;5043125;28;20100;-58
2021/11/02 01:08:52;;;;;;;10.75;2.25;;;;;;;;;;5021142;28;20054;-58
2021/11/02 01:11:19;;;;;;;6.05;1.92;;;;;;;;;;5024243;28;20110;-58
2021/11/02 01:13:46;;;;;;;10.60;2.40;;;;;;;;;;5038947;28;20037;-58
2021/11/02 01:16:12;;;;;;;3.50;1.73;;;;;;;;;;5042523;28;20037;-58
2021/11/02 01:18:38;;;;;;;7.80;1.70;;;;;;;;;;5038138;28;20522;-59
2021/11/02 01:21:06;;;;;;;7.22;2.05;;;;;;;;;;5042818;28;20040;-58
2021/11/02 01:23:35;;;;;;;11.23;1.70;;;;;;;;;;5037508;28;20049;-58
2021/11/02 01:26:02;;;;;;;5.78;1.85;;;;;;;;;;5042708;28;20045;-59
2021/11/02 01:28:28;;;;;;;5.30;2.03;;;;;;;;;;5038011;28;20044;-59
2021/11/02 01:30:55;;;;;;;6.05;2.33;;;;;;;;;;5042271;28;20038;-58
2021/11/02 01:33:21;;;;;;;7.07;2.58;;;;;;;;;;5037302;28;20049;-58
2021/11/02 01:35:48;;;;;;;7.28;2.72;;;;;;;;;;5041661;28;20115;-58
2021/11/02 01:38:18;;;;;;;6.97;2.70;;;;;;;;;;5037365;28;20120;-58
2021/11/02 01:40:45;;;;;;;8.23;2.55;;;;;;;;;;5022320;28;20033;-57
2021/11/02 01:43:14;;;;;;;6.47;2.63;;;;;;;;;;5020826;28;20049;-58
2021/11/02 01:45:40;;;;;;;6.47;2.38;;;;;;;;;;5039495;28;20033;-58
2021/11/02 01:48:07;;;;;;;6.88;2.38;;;;;;;;;;5039724;28;20466;-58
2021/11/02 01:50:34;;;;;;;7.00;2.40;;;;;;;;;;5040280;28;20362;-58
2021/11/02 01:53:00;;;;;;;7.35;2.78;;;;;;;;;;5040555;28;20052;-57
2021/11/02 01:55:29;;;;;;;10.00;3.13;;;;;;;;;;5038328;28;20041;-58
2021/11/02 01:57:55;;;;;;;7.97;2.80;;;;;;;;;;5042142;28;20107;-58
2021/11/02 02:00:22;;;;;;;5.22;2.50;;;;;;;;;;5037622;28;20072;-58
2021/11/02 02:02:53;;;;;;;7.18;2.60;;;;;;;;;;5042445;28;20041;-59
2021/11/02 02:05:25;;;;;;;9.80;2.72;;;;;;;;;;5025774;28;20449;-58
2021/11/02 02:07:59;;;;;;;9.27;2.70;;;;;;;;;;5022380;28;20373;-59
2021/11/02 02:10:30;;;;;;;7.72;2.72;;;;;;;;;;5032354;28;20041;-58
2021/11/02 02:13:12;;;;;;;6.88;2.63;;;;;;;;;;5044021;28;20056;-58
2021/11/02 02:15:42;;;;;;;7.57;2.65;;;;;;;;;;5036865;28;20049;-58
2021/11/02 02:18:12;;;;;;;6.25;2.25;;;;;;;;;;5041798;28;20037;-58
2021/11/02 02:20:50;;;;;;;7.75;2.55;;;;;;;;;;5027609;28;20042;-58
2021/11/02 02:23:33;;;;;;;6.70;2.22;;;;;;;;;;5031965;28;20057;-57
2021/11/02 02:26:01;;;;;;;9.48;2.85;;;;;;;;;;5035110;28;20033;-58
2021/11/02 02:28:31;;;;;;;7.68;2.58;;;;;;;;;;5040088;28;20044;-58
2021/11/02 02:31:01;;;;;;;7.88;2.22;;;;;;;;;;5026829;28;20041;-59
2021/11/02 02:33:31;;;;;;;6.80;2.22;;;;;;;;;;5021196;28;20044;-58
2021/11/02 02:35:58;;;;;;;8.32;2.33;;;;;;;;;;5026034;28;20044;-58
2021/11/02 02:38:26;;;;;;;7.07;2.22;;;;;;;;;;5043019;28;20045;-58
2021/11/02 02:40:53;;;;;;;9.30;2.35;;;;;;;;;;5037382;28;20041;-58
2021/11/02 02:43:20;;;;;;;5.53;2.08;;;;;;;;;;5039816;28;20138;-57
2021/11/02 02:45:49;;;;;;;5.70;1.98;;;;;;;;;;5038143;28;20061;-57
2021/11/02 02:48:19;;;;;;;4.85;1.92;;;;;;;;;;5041828;28;20041;-58
2021/11/02 02:50:46;;;;;;;6.25;1.75;;;;;;;;;;5036931;28;20041;-57
2021/11/02 02:53:13;;;;;;;5.80;2.05;;;;;;;;;;5041345;28;20041;-57
2021/11/02 02:55:42;;;;;;;7.68;1.77;;;;;;;;;;5039844;28;20045;-56
2021/11/02 02:58:09;;;;;;;6.38;2.03;;;;;;;;;;5036316;28;20135;-58
2021/11/02 03:00:36;;;;;;;5.20;2.22;;;;;;;;;;5039037;28;20045;-57
2021/11/02 03:03:04;;;;;;;10.98;2.17;;;;;;;;;;5022020;28;20049;-57
2021/11/02 03:05:31;;;;;;;7.93;2.45;;;;;;;;;;5022351;28;20042;-57
2021/11/02 03:07:58;;;;;;;8.30;2.13;;;;;;;;;;5033314;28;20045;-56
2021/11/02 03:10:24;;;;;;;10.30;2.42;;;;;;;;;;5046557;28;20048;-57
2021/11/02 03:12:55;;;;;;;7.90;2.05;;;;;;;;;;5039591;28;20055;-58
2021/11/02 03:15:46;;;;;;;5.50;2.00;;;;;;;;;;5043599;28;20487;-57
2021/11/02 03:18:29;;;;;;;6.60;2.30;;;;;;;;;;5025398;28;20120;-57
2021/11/02 03:51:20;;;;;;;5.13;1.98;;;;;;;;;;5043086;28;20052;-58
2021/11/02 03:56:55;;;;;;;6.35;1.90;;;;;;;;;;5021754;28;20414;-58
2021/11/02 04:24:56;;;;;;;5.50;2.03;;;;;;;;;;5036715;28;21653;-58
2021/11/02 04:27:49;;;;;;;5.07;1.55;;;;;;;;;;5041491;28;20037;-58
2021/11/02 04:33:27;;;;;;;3.92;1.83;;;;;;;;;;4951509;28;20159;-56
2021/11/02 05:12:44;;;;;;;5.13;1.80;;;;;;;;;;4984471;28;20048;-55
2021/11/02 05:48:18;;;;;;;2.50;1.23;;;;;;;;;;5034274;28;20033;-57
2021/11/02 05:51:01;;;;;;;4.53;1.40;;;;;;;;;;5023580;28;20041;-57
2021/11/02 05:53:52;;;;;;;7.28;1.90;;;;;;;;;;5027975;28;20044;-57
2021/11/02 05:56:23;;;;;;;6.72;1.40;;;;;;;;;;5044226;28;20047;-56
2021/11/02 05:58:57;;;;;;;5.53;1.48;;;;;;;;;;5041959;28;20064;-58
2021/11/02 06:01:35;;;;;;;4.10;1.60;;;;;;;;;;5061812;28;20048;-58
2021/11/02 06:04:17;;;;;;;6.13;1.48;;;;;;;;;;5033170;28;20316;-57
2021/11/02 06:06:50;;;;;;;5.55;1.48;;;;;;;;;;5025725;28;20026;-55
2021/11/02 06:09:22;;;;;;;3.55;1.52;;;;;;;;;;5030818;28;20055;-58
2021/11/02 06:28:26;;;;;;;4.80;1.73;;;;;;;;;;5023791;28;20041;-56
2021/11/02 06:30:59;;;;;;;3.75;1.58;;;;;;;;;;5033488;28;20131;-56
2021/11/02 06:33:39;;;;;;;5.70;1.52;;;;;;;;;;5053221;28;20044;-58
2021/11/02 06:36:31;;;;;;;4.97;1.70;;;;;;;;;;5043386;28;20072;-59
2021/11/02 06:39:25;;;;;;;4.55;1.70;;;;;;;;;;5055386;28;20084;-59
2021/11/02 06:42:12;;;;;;;7.72;1.95;;;;;;;;;;5048641;28;20052;-58
2021/11/02 06:47:38;;;;;;;4.03;1.75;;;;;;;;;;5051705;28;20029;-57
2021/11/02 06:58:50;;;;;;;6.28;1.90;;;;;;;;;;5046796;28;20040;-58
2021/11/02 07:18:02;;;;;;;7.95;2.00;;;;;;;;;;5041989;28;20033;-57
2021/11/02 07:20:37;;;;;;;12.70;4.05;;;;;;;;;;5041906;28;20041;-58
2021/11/02 07:23:16;;;;;;;4.78;2.03;;;;;;;;;;5040156;28;20041;-59
2021/11/02 07:25:49;;;;;;;;;;;;;;;;;;5042467;28;20182;-58
2021/11/02 07:28:32;;;;;;;4.15;1.35;;;;;;;;;;5037513;28;19998;-58
2021/11/02 08:45:56;;;;;;;4.13;1.80;;;;;;;;;;5025970;28;20042;-57
2021/11/02 08:48:25;;;;;;;5.22;1.88;;;;;;;;;;5037404;28;20041;-58
2021/11/02 08:50:55;;;;;;;5.78;1.75;;;;;;;;;;5038290;28;20175;-57
2021/11/02 08:53:24;;;;;;;5.07;2.08;;;;;;;;;;5042394;28;20048;-58
2021/11/02 08:55:51;;;;;;;9.32;2.15;;;;;;;;;;5030106;28;20042;-58
2021/11/02 08:58:19;;;;;;;4.60;2.40;;;;;;;;;;5023684;28;20054;-58
2021/11/02 09:00:46;;;;;;;7.22;2.42;;;;;;;;;;5021296;28;20072;-59
2021/11/02 09:03:16;;;;;;;5.13;2.30;;;;;;;;;;5022450;28;20042;-58
2021/11/02 09:05:43;;;;;;;2.58;1.60;;;;;;;;;;5018474;28;20046;-58
2021/11/02 09:08:11;;;;;;;6.57;2.10;;;;;;;;;;5022250;28;20361;-57
2021/11/02 09:10:39;;;;;;;4.20;1.98;;;;;;;;;;5021077;28;20056;-55
2021/11/02 09:13:07;;;;;;;5.35;1.95;;;;;;;;;;5041037;28;20045;-58
2021/11/02 09:15:36;;;;;;;4.38;1.85;;;;;;;;;;5038959;28;20142;-58
2021/11/02 09:18:03;;;;;;;5.00;2.00;;;;;;;;;;5040465;28;20139;-58
2021/11/02 09:20:30;;;;;;;8.02;2.50;;;;;;;;;;5042160;28;20130;-58
2021/11/02 09:22:57;;;;;;;6.10;2.20;;;;;;;;;;5037355;28;20041;-57
2021/11/02 09:25:26;;;;;;;5.82;2.28;;;;;;;;;;5042060;28;20041;-58
2021/11/02 09:27:52;;;;;;;6.32;1.88;;;;;;;;;;5037203;28;20138;-57
2021/11/02 09:30:20;;;;;;;5.43;1.77;;;;;;;;;;5042570;28;20069;-58
2021/11/02 09:32:48;;;;;;;6.85;2.35;;;;;;;;;;5028087;28;20119;-58
2021/11/02 09:35:16;;;;;;;9.40;2.10;;;;;;;;;;5024108;28;20046;-59
2021/11/02 09:37:44;;;;;;;4.85;2.05;;;;;;;;;;5019219;28;20037;-59
2021/11/02 09:40:15;;;;;;;7.35;2.00;;;;;;;;;;5022428;28;20579;-58
2021/11/02 09:43:09;;;;;;;7.05;2.45;;;;;;;;;;5020415;28;20037;-58
2021/11/02 09:45:54;;;;;;;5.53;1.75;;;;;;;;;;5023596;28;20041;-58
2021/11/02 09:48:40;;;;;;;4.43;2.13;;;;;;;;;;5039173;28;20057;-57
2021/11/02 09:51:30;;;;;;;5.82;2.40;;;;;;;;;;5025947;28;20128;-58
2021/11/02 09:54:09;;;;;;;8.38;2.40;;;;;;;;;;5037355;28;20032;-58
2021/11/02 09:56:48;;;;;;;6.85;2.20;;;;;;;;;;5044303;28;20061;-59
2021/11/02 09:59:36;;;;;;;5.55;2.10;;;;;;;;;;5024136;28;20089;-58
2021/11/02 10:02:16;;;;;;;7.15;2.50;;;;;;;;;;4992418;28;20085;-58
2021/11/02 10:04:56;;;;;;;5.55;2.42;;;;;;;;;;5021153;28;20045;-58
2021/11/02 10:07:34;;;;;;;6.88;2.70;;;;;;;;;;5032088;28;20060;-59
2021/11/02 10:10:03;;;;;;;14.18;3.63;;;;;;;;;;5039528;28;20037;-58
2021/11/02 10:12:34;;;;;;;6.93;3.58;;;;;;;;;;5043160;28;20050;-58
2021/11/02 10:15:05;;;;;;;7.22;3.05;;;;;;;;;;5038290;28;20052;-59
2021/11/02 10:17:57;;;;;;;8.57;3.03;;;;;;;;;;5044478;28;20041;-58
2021/11/02 10:20:32;;;;;;;6.88;2.97;;;;;;;;;;5059650;28;20060;-58
2021/11/02 10:23:26;;;;;;;7.38;3.15;;;;;;;;;;5043475;28;20056;-58
2021/11/02 10:26:00;;;;;;;7.88;3.67;;;;;;;;;;5017700;28;20115;-59
2021/11/02 10:28:40;;;;;;;9.38;3.85;;;;;;;;;;5036824;28;20025;-58
2021/11/02 10:31:11;;;;;;;7.93;3.05;;;;;;;;;;5024656;28;20068;-58
2021/11/02 10:33:38;;;;;;;10.05;3.20;;;;;;;;;;5021313;28;20037;-59
2021/11/02 10:36:26;;;;;;;7.95;3.15;;;;;;;;;;5040040;28;20049;-58
2021/11/02 10:39:02;;;;;;;7.47;3.47;;;;;;;;;;5012050;28;20194;-59
2021/11/02 10:41:37;;;;;;;10.73;3.13;;;;;;;;;;5042008;28;20126;-59
2021/11/02 10:44:14;;;;;;;7.55;3.45;;;;;;;;;;5036075;28;20146;-58
2021/11/02 10:46:45;;;;;;;7.30;3.08;;;;;;;;;;5018860;28;20160;-58
2021/11/02 10:49:21;;;;;;;7.45;3.53;;;;;;;;;;5023879;28;20115;-60
2021/11/02 10:51:53;;;;;;;14.07;4.43;;;;;;;;;;5001177;28;20049;-59
2021/11/02 10:54:28;;;;;;;15.18;6.03;;;;;;;;;;5001689;28;20202;-59
2021/11/02 10:57:12;;;;;;;13.50;4.70;;;;;;;;;;5010730;28;20049;-58
2021/11/02 10:59:41;;;;;;;11.30;3.60;;;;;;;;;;5020774;28;20034;-59
2021/11/02 11:02:15;;;;;;;9.80;3.25;;;;;;;;;;5026141;28;20045;-59
2021/11/02 11:04:47;;;;;;;11.02;3.88;;;;;;;;;;5003141;28;20056;-58
2021/11/02 11:07:15;;;;;;;6.90;2.95;;;;;;;;;;5029512;28;20156;-59
2021/11/02 11:09:44;;;;;;;10.43;4.40;;;;;;;;;;5020832;28;20038;-59
2021/11/02 11:12:14;;;;;;;11.15;4.38;;;;;;;;;;5031738;28;20049;-58
2021/11/02 11:14:44;;;;;;;10.70;4.70;;;;;;;;;;5040742;28;20045;-57
2021/11/02 11:17:11;;;;;;;11.38;5.47;;;;;;;;;;5020488;28;20092;-58
2021/11/02 11:19:45;;;;;;;10.23;4.35;;;;;;;;;;5022901;28;20034;-58
2021/11/02 11:22:11;;;;;;;8.73;4.45;;;;;;;;;;5017442;28;20034;-58
2021/11/02 11:24:46;;;;;;;19.65;4.13;;;;;;;;;;5018952;28;20077;-58
2021/11/02 11:27:15;;;;;;;11.30;4.30;;;;;;;;;;5019195;28;20048;-59
2021/11/02 11:29:44;;;;;;;10.52;4.65;;;;;;;;;;5059877;28;20502;-58
2021/11/02 11:32:11;;;;;;;11.38;5.65;;;;;;;;;;5046477;28;20056;-58
2021/11/02 11:34:42;;;;;;;11.63;4.72;;;;;;;;;;5033587;28;20052;-59
2021/11/02 11:37:12;;;;;;;13.60;4.70;;;;;;;;;;5039570;28;20045;-59
2021/11/02 11:39:38;;;;;;;17.15;5.97;;;;;;;;;;5041641;28;20078;-59
2021/11/02 11:42:05;;;;;;;15.18;6.72;;;;;;;;;;5031235;28;20049;-58
2021/11/02 11:44:34;;;;;;;15.85;6.75;;;;;;;;;;5023618;28;20045;-60
2021/11/02 11:47:03;;;;;;;22.90;9.25;;;;;;;;;;5025080;28;20033;-60
2021/11/02 11:49:30;;;;;;;18.40;7.03;;;;;;;;;;5043171;28;20037;-58
2021/11/02 11:51:57;;;;;;;17.35;6.57;;;;;;;;;;5037549;28;20483;-58
2021/11/02 11:54:28;;;;;;;15.48;5.55;;;;;;;;;;5023491;28;20093;-59
2021/11/02 11:56:58;;;;;;;9.80;4.47;;;;;;;;;;5021524;28;20066;-59
2021/11/02 11:59:26;;;;;;;8.70;3.90;;;;;;;;;;5042061;28;20057;-59
2021/11/02 12:01:56;;;;;;;10.80;4.70;;;;;;;;;;5043626;28;20052;-59
2021/11/02 12:04:25;;;;;;;9.60;4.50;;;;;;;;;;5029620;28;20029;-58
2021/11/02 12:06:59;;;;;;;11.88;4.75;;;;;;;;;;5042935;28;20057;-59
2021/11/02 12:09:27;;;;;;;11.23;4.70;;;;;;;;;;5052591;28;20053;-59
2021/11/02 12:12:01;;;;;;;9.38;4.13;;;;;;;;;;5039934;28;20048;-59
2021/11/02 12:14:28;;;;;;;15.05;4.53;;;;;;;;;;5019335;28;20040;-59
2021/11/02 12:16:59;;;;;;;13.02;4.38;;;;;;;;;;5023001;28;20118;-59
2021/11/02 12:19:41;;;;;;;11.00;4.82;;;;;;;;;;5034135;28;20065;-59
2021/11/02 12:22:12;;;;;;;11.48;3.88;;;;;;;;;;5027487;28;20044;-59
2021/11/02 12:24:42;;;;;;;10.98;4.82;;;;;;;;;;5038051;28;20055;-60
2021/11/02 12:27:12;;;;;;;12.98;5.20;;;;;;;;;;5042536;28;20059;-59
2021/11/02 12:29:39;;;;;;;9.57;4.63;;;;;;;;;;5040640;28;20052;-59
2021/11/02 12:32:07;;;;;;;11.77;5.43;;;;;;;;;;5043742;28;20110;-60
2021/11/02 12:34:35;;;;;;;;;;;;;;;;;;5029276;28;20127;-58
2021/11/02 12:37:06;;;;;;;9.02;4.63;;;;;;;;;;5021608;28;19925;-60
2021/11/02 12:39:35;;;;;;;7.63;4.20;;;;;;;;;;5029441;28;20045;-59
2021/11/02 12:42:02;;;;;;;8.98;4.30;;;;;;;;;;5041940;28;20118;-59
2021/11/02 12:44:29;;;;;;;12.15;4.55;;;;;;;;;;5054921;28;20037;-59
2021/11/02 12:46:57;;;;;;;9.02;4.55;;;;;;;;;;5044876;28;20041;-58
2021/11/02 12:49:33;;;;;;;12.65;3.58;;;;;;;;;;5057396;28;20057;-58
2021/11/02 12:52:03;;;;;;;10.18;4.75;;;;;;;;;;5043793;28;20052;-58
2021/11/02 12:54:31;;;;;;;8.95;4.13;;;;;;;;;;5037252;28;20033;-59
2021/11/02 12:57:01;;;;;;;9.27;4.28;;;;;;;;;;5025285;28;20526;-58
2021/11/02 12:59:35;;;;;;;10.73;4.28;;;;;;;;;;5040660;28;20033;-60
2021/11/02 13:02:15;;;;;;;12.90;3.92;;;;;;;;;;5025742;28;20053;-59
2021/11/02 13:04:43;;;;;;;6.88;3.40;;;;;;;;;;5021858;28;20123;-60
2021/11/02 13:07:11;;;;;;;11.57;3.85;;;;;;;;;;5026133;28;20065;-59
2021/11/02 13:09:38;;;;;;;9.77;4.57;;;;;;;;;;5024022;28;20051;-59
2021/11/02 13:12:07;;;;;;;11.55;4.82;;;;;;;;;;5060059;28;20121;-59
2021/11/02 13:14:37;;;;;;;10.18;5.25;;;;;;;;;;5045606;28;20052;-60
2021/11/02 13:17:05;;;;;;;26.80;12.50;;;;;;;;;;5040574;28;20056;-59
2021/11/02 13:19:33;;;;;;;9.70;5.13;;;;;;;;;;5063235;28;20041;-59
2021/11/02 13:22:07;;;;;;;9.15;5.03;;;;;;;;;;5059315;28;20521;-59
2021/11/02 13:24:34;;;;;;;9.90;4.43;;;;;;;;;;5045529;28;20033;-58
2021/11/02 13:27:00;;;;;;;12.00;5.32;;;;;;;;;;5027796;28;20056;-59
2021/11/02 13:29:27;;;;;;;11.23;5.60;;;;;;;;;;5027094;28;20037;-59
2021/11/02 13:31:54;;;;;;;12.45;5.35;;;;;;;;;;5026062;28;20044;-58
2021/11/02 13:34:36;;;;;;;11.05;5.63;;;;;;;;;;5044143;28;20033;-58
2021/11/02 13:37:03;;;;;;;12.50;5.30;;;;;;;;;;5030363;28;20041;-59
2021/11/02 13:39:31;;;;;;;11.80;4.90;;;;;;;;;;5023954;28;20049;-59
2021/11/02 13:41:58;;;;;;;14.93;5.20;;;;;;;;;;5030780;28;20060;-59
2021/11/02 13:44:29;;;;;;;15.93;4.57;;;;;;;;;;5041927;28;20274;-59
2021/11/02 13:46:58;;;;;;;11.05;5.22;;;;;;;;;;5036532;28;20029;-59
2021/11/02 13:49:24;;;;;;;14.80;5.50;;;;;;;;;;5040704;28;20119;-58
2021/11/02 13:51:52;;;;;;;41.88;6.00;;;;;;;;;;5038686;28;20048;-59
2021/11/02 13:54:18;;;;;;;148.73;8.68;;;;;;;;;;5043288;28;20527;-60
2021/11/02 13:56:47;;;;;;;190.75;9.30;;;;;;;;;;5035332;28;20057;-58
2021/11/02 13:59:14;;;;;;;42.65;5.63;;;;;;;;;;5025161;28;20093;-60
2021/11/02 14:01:43;;;;;;;16.40;5.18;;;;;;;;;;5021421;28;20038;-60
2021/11/02 14:04:10;;;;;;;10.52;4.97;;;;;;;;;;5023544;28;20123;-58
2021/11/02 14:06:38;;;;;;;11.27;4.77;;;;;;;;;;5022485;28;20049;-58
2021/11/02 14:09:08;;;;;;;12.73;4.88;;;;;;;;;;5018270;28;20405;-59
2021/11/02 14:11:36;;;;;;;13.68;4.30;;;;;;;;;;5024351;28;20057;-59
2021/11/02 14:14:04;;;;;;;10.18;4.47;;;;;;;;;;5036781;28;20053;-59
2021/11/02 14:16:32;;;;;;;11.10;4.60;;;;;;;;;;5040351;28;20099;-59
2021/11/02 14:18:59;;;;;;;8.13;3.63;;;;;;;;;;5022403;28;20079;-59
2021/11/02 14:21:45;;;;;;;8.63;3.65;;;;;;;;;;5020159;28;20050;-59
2021/11/02 14:24:12;;;;;;;7.82;3.40;;;;;;;;;;5019387;28;20056;-59
2021/11/02 14:26:47;;;;;;;9.30;3.60;;;;;;;;;;5021033;28;20042;-58
2021/11/02 14:29:15;;;;;;;6.80;2.80;;;;;;;;;;5030056;28;20049;-59
2021/11/02 14:31:52;;;;;;;6.32;3.03;;;;;;;;;;5041270;28;20065;-59
2021/11/02 14:34:40;;;;;;;9.70;3.60;;;;;;;;;;5025013;28;20101;-59
2021/11/02 14:37:11;;;;;;;6.35;3.03;;;;;;;;;;5055056;28;20089;-58
2021/11/02 14:39:53;;;;;;;7.43;3.58;;;;;;;;;;5030817;28;20196;-59
2021/11/02 14:42:35;;;;;;;11.63;3.65;;;;;;;;;;5021069;28;20049;-58
2021/11/02 14:45:03;;;;;;;16.73;5.38;;;;;;;;;;5029810;28;20090;-58
2021/11/02 14:47:33;;;;;;;8.85;4.75;;;;;;;;;;5042118;28;20084;-59
2021/11/02 14:50:00;;;;;;;8.65;4.22;;;;;;;;;;5024404;28;20052;-58
2021/11/02 14:52:27;;;;;;;8.88;4.30;;;;;;;;;;5021455;28;20050;-59
2021/11/02 14:54:54;;;;;;;12.85;4.60;;;;;;;;;;5027956;28;20176;-58
2021/11/02 14:57:50;;;;;;;8.20;3.63;;;;;;;;;;5041806;28;20041;-58
2021/11/02 15:00:37;;;;;;;10.02;4.15;;;;;;;;;;4959495;28;20179;-58
2021/11/02 15:03:15;;;;;;;7.85;3.85;;;;;;;;;;5032380;28;20131;-58
2021/11/02 15:05:42;;;;;;;8.60;4.07;;;;;;;;;;5044080;28;20045;-59
2021/11/02 15:08:13;;;;;;;9.90;3.67;;;;;;;;;;5043173;28;20254;-59
2021/11/02 15:10:43;;;;;;;11.13;4.88;;;;;;;;;;5040092;28;20047;-58
2021/11/02 15:13:11;;;;;;;9.85;4.15;;;;;;;;;;5043321;28;20084;-58
2021/11/02 15:15:39;;;;;;;10.30;4.20;;;;;;;;;;5039299;28;20126;-59
2021/11/02 15:18:06;;;;;;;7.57;3.88;;;;;;;;;;5044050;28;20029;-58
2021/11/02 15:20:32;;;;;;;9.57;4.32;;;;;;;;;;5039419;28;20049;-58
2021/11/02 15:22:59;;;;;;;7.80;3.85;;;;;;;;;;5044911;28;20033;-58
2021/11/02 15:25:26;;;;;;;10.70;4.18;;;;;;;;;;5040083;28;20045;-59
2021/11/02 15:27:58;;;;;;;8.95;4.10;;;;;;;;;;5044119;28;20486;-59
2021/11/02 15:30:24;;;;;;;8.60;3.50;;;;;;;;;;5040187;28;20055;-59
2021/11/02 15:32:52;;;;;;;7.25;3.20;;;;;;;;;;5026949;28;20044;-58
2021/11/02 15:35:22;;;;;;;5.07;2.60;;;;;;;;;;5023272;28;20042;-58
2021/11/02 15:37:49;;;;;;;4.07;2.10;;;;;;;;;;5023309;28;20081;-58
2021/11/02 15:40:18;;;;;;;2.42;1.23;;;;;;;;;;5023483;28;20053;-58
2021/11/02 15:42:44;;;;;;;;;;;;;;;;;;5023185;28;20098;-58
2021/11/02 15:45:12;;;;;;;4.05;1.73;;;;;;;;;;5025500;28;19925;-58
2021/11/02 15:47:40;;;;;;;3.75;1.55;;;;;;;;;;5026635;28;20045;-59
2021/11/02 15:50:09;;;;;;;3.35;1.40;;;;;;;;;;5062397;28;20049;-59
2021/11/02 15:52:38;;;;;;;2.95;1.30;;;;;;;;;;5047604;28;20183;-58
2021/11/02 15:55:06;;;;;;;1.35;0.80;;;;;;;;;;5046273;28;20044;-58
2021/11/02 15:57:39;;;;;;;2.05;0.95;;;;;;;;;;5038648;28;20521;-59
2021/11/02 16:00:07;;;;;;;2.53;1.05;;;;;;;;;;5042098;28;20041;-58
2021/11/02 16:02:34;;;;;;;2.80;0.70;;;;;;;;;;5041408;28;20036;-59
2021/11/02 16:05:01;;;;;;;1.73;0.82;;;;;;;;;;5046781;28;20045;-59
2021/11/02 16:07:32;;;;;;;2.15;0.88;;;;;;;;;;5060286;28;20037;-59
2021/11/02 16:09:59;;;;;;;1.20;0.85;;;;;;;;;;5045619;28;20122;-58
2021/11/02 16:12:26;;;;;;;1.67;1.08;;;;;;;;;;5044607;28;20605;-59
2021/11/02 16:14:55;;;;;;;2.55;1.10;;;;;;;;;;5044098;28;20043;-59
2021/11/02 16:17:22;;;;;;;3.08;1.10;;;;;;;;;;5037742;28;20384;-59
2021/11/02 16:19:49;;;;;;;1.88;1.00;;;;;;;;;;5024318;28;20090;-59
2021/11/02 16:22:16;;;;;;;1.73;1.02;;;;;;;;;;5024506;28;20049;-59
2021/11/02 16:24:44;;;;;;;2.65;0.82;;;;;;;;;;5044737;28;20526;-59
2021/11/02 16:27:22;;;;;;;2.45;1.20;;;;;;;;;;5045327;28;20049;-58
2021/11/02 16:29:49;;;;;;;1.85;0.90;;;;;;;;;;5058287;28;20040;-58
2021/11/02 16:32:20;;;;;;;2.30;1.00;;;;;;;;;;5060990;28;20029;-58
2021/11/02 16:34:47;;;;;;;5.18;1.23;;;;;;;;;;5041250;28;20077;-58
2021/11/02 16:37:28;;;;;;;2.53;0.98;;;;;;;;;;5043474;28;20041;-59
2021/11/02 16:40:09;;;;;;;3.20;1.10;;;;;;;;;;5025082;28;20055;-58
2021/11/02 16:42:37;;;;;;;3.10;1.30;;;;;;;;;;5025369;28;20122;-59
2021/11/02 16:45:10;;;;;;;4.97;1.03;;;;;;;;;;5021942;28;20404;-58
2021/11/02 16:47:37;;;;;;;1.48;0.90;;;;;;;;;;5024687;28;20274;-59
2021/11/02 16:50:05;;;;;;;4.97;1.00;;;;;;;;;;5023855;28;20103;-58
2021/11/02 16:52:32;;;;;;;1.52;0.88;;;;;;;;;;5025981;28;20052;-58
2021/11/02 16:55:07;;;;;;;2.13;1.02;;;;;;;;;;5036312;28;20130;-59
2021/11/02 16:57:34;;;;;;;1.63;1.00;;;;;;;;;;5046219;28;20117;-58
2021/11/02 17:00:05;;;;;;;5.15;2.00;;;;;;;;;;5044735;28;20118;-58
2021/11/02 17:02:35;;;;;;;2.70;1.45;;;;;;;;;;5048403;28;20037;-61
2021/11/02 17:05:10;;;;;;;5.53;1.60;;;;;;;;;;5042845;28;20029;-59
2021/11/02 17:07:39;;;;;;;3.15;1.30;;;;;;;;;;5045710;28;20043;-58
2021/11/02 17:10:28;;;;;;;4.22;1.25;;;;;;;;;;5040265;28;20037;-59
2021/11/02 17:12:56;;;;;;;3.38;1.20;;;;;;;;;;5060563;28;20029;-59
2021/11/02 17:15:24;;;;;;;3.67;1.40;;;;;;;;;;5039806;28;20060;-58
2021/11/02 17:17:52;;;;;;;1.65;1.00;;;;;;;;;;5062466;28;20045;-59
2021/11/02 17:20:19;;;;;;;2.35;1.30;;;;;;;;;;5041566;28;20174;-58
2021/11/02 17:22:46;;;;;;;7.25;2.10;;;;;;;;;;5045506;28;20052;-59
2021/11/02 17:25:14;;;;;;;4.40;2.10;;;;;;;;;;5040573;28;20400;-58
2021/11/02 17:27:41;;;;;;;3.65;1.50;;;;;;;;;;5047160;28;20039;-58
2021/11/02 17:30:16;;;;;;;3.15;1.50;;;;;;;;;;5041969;28;20025;-58
2021/11/02 17:32:47;;;;;;;3.10;1.10;;;;;;;;;;5046218;28;20044;-59
2021/11/02 17:35:15;;;;;;;2.10;1.10;;;;;;;;;;5061194;28;20045;-59
2021/11/02 17:37:42;;;;;;;2.60;1.00;;;;;;;;;;5044142;28;20106;-58
2021/11/02 17:40:09;;;;;;;7.78;2.65;;;;;;;;;;5042090;28;20034;-59
2021/11/02 17:42:37;;;;;;;16.65;6.35;;;;;;;;;;5043348;28;20060;-58
2021/11/02 17:45:04;;;;;;;12.40;2.75;;;;;;;;;;5042069;28;20049;-58
2021/11/02 17:47:31;;;;;;;4.60;1.40;;;;;;;;;;5047865;28;20060;-58
2021/11/02 17:50:00;;;;;;;2.40;1.30;;;;;;;;;;5050844;28;20043;-58
2021/11/02 17:52:26;;;;;;;2.33;1.10;;;;;;;;;;5044655;28;20133;-59
2021/11/02 17:54:53;;;;;;;2.97;1.20;;;;;;;;;;5050080;28;20048;-59
2021/11/02 17:57:20;;;;;;;4.30;2.15;;;;;;;;;;5030479;28;20069;-58
2021/11/02 17:59:49;;;;;;;7.88;3.40;;;;;;;;;;5052140;28;20513;-58
2021/11/02 18:02:16;;;;;;;5.88;2.17;;;;;;;;;;5046385;28;20044;-58
2021/11/02 18:04:43;;;;;;;3.10;1.30;;;;;;;;;;5063012;28;20118;-58
2021/11/02 18:07:11;;;;;;;6.03;1.20;;;;;;;;;;5047378;28;20056;-58
2021/11/02 18:09:38;;;;;;;8.68;1.17;;;;;;;;;;5049470;28;20039;-58
2021/11/02 18:12:05;;;;;;;2.45;1.50;;;;;;;;;;5047901;28;20036;-58
2021/11/02 18:14:32;;;;;;;2.78;1.20;;;;;;;;;;5050996;28;20036;-59
2021/11/02 18:16:59;;;;;;;3.05;1.02;;;;;;;;;;5047594;28;20073;-59
2021/11/02 18:19:26;;;;;;;3.38;1.10;;;;;;;;;;5049332;28;20052;-58
2021/11/02 18:21:53;;;;;;;2.10;1.13;;;;;;;;;;5047884;28;20047;-58
2021/11/02 18:24:21;;;;;;;3.13;1.10;;;;;;;;;;5052749;28;20118;-58
2021/11/02 18:26:48;;;;;;;2.88;1.15;;;;;;;;;;5056570;28;20033;-58
2021/11/02 18:29:14;;;;;;;1.40;0.90;;;;;;;;;;5042759;28;20044;-59
2021/11/02 18:31:43;;;;;;;2.60;1.20;;;;;;;;;;5051507;28;20043;-58
2021/11/02 18:34:13;;;;;;;3.28;1.30;;;;;;;;;;5047752;28;20067;-59
2021/11/02 18:36:39;;;;;;;3.55;1.23;;;;;;;;;;5053989;28;20045;-58
2021/11/02 18:39:06;;;;;;;2.95;1.08;;;;;;;;;;5048018;28;20047;-59
2021/11/02 18:41:34;;;;;;;1.90;1.10;;;;;;;;;;5050944;28;20055;-58
2021/11/02 18:44:01;;;;;;;2.63;1.00;;;;;;;;;;5034465;28;20068;-58
2021/11/02 18:46:28;;;;;;;2.78;1.20;;;;;;;;;;5038841;28;20037;-59
2021/11/02 18:48:55;;;;;;;1.65;0.90;;;;;;;;;;5037764;28;20044;-59
2021/11/02 18:51:21;;;;;;;2.80;1.20;;;;;;;;;;5041329;28;20033;-59
2021/11/02 18:53:49;;;;;;;4.88;1.13;;;;;;;;;;5034770;28;20049;-58
2021/11/02 18:56:16;;;;;;;1.58;1.10;;;;;;;;;;5038327;28;20033;-59
2021/11/02 18:58:44;;;;;;;3.67;1.20;;;;;;;;;;5035628;28;20472;-59
2021/11/02 19:01:10;;;;;;;1.70;1.10;;;;;;;;;;5038889;28;20163;-59
2021/11/02 19:03:37;;;;;;;2.80;1.27;;;;;;;;;;5036056;28;20029;-59
2021/11/02 19:06:04;;;;;;;3.58;1.52;;;;;;;;;;5038207;28;20053;-59
2021/11/02 19:08:31;;;;;;;3.45;1.40;;;;;;;;;;5038960;28;20045;-59
2021/11/02 19:11:00;;;;;;;3.85;1.40;;;;;;;;;;5035587;28;20045;-59
2021/11/02 19:13:26;;;;;;;4.35;1.60;;;;;;;;;;5039167;28;20127;-59